Time;durP1;ratioP1;P1;durP2;ratioP2;P2;SDS_P1;SDS_P2;PMS_P1;PMS_P2;Temp;Humidity;BMP_temperature;BMP_pressure;BME280_temperature;BME280_humidity;BME280_pressure;Samples;Min_cycle;Max_cycle;Signal;HPM_P1;HPM_P2
2022/10/17 00:01:28;;;;;;;0.40;0.40;;;;;;;10.97;72.70;100738.13;5107531;28;20020;-73
2022/10/17 00:03:53;;;;;;;0.40;0.40;;;;;;;10.98;72.87;100739.84;5126210;28;20023;-73
2022/10/17 00:06:19;;;;;;;0.40;0.40;;;;;;;10.97;72.70;100740.72;5126107;28;20046;-72
2022/10/17 00:08:44;;;;;;;0.40;0.40;;;;;;;10.91;72.14;100737.28;5126142;28;20498;-73
2022/10/17 00:11:16;;;;;;;0.40;0.40;;;;;;;10.95;71.95;100750.25;5125944;28;20026;-72
2022/10/17 00:13:42;;;;;;;0.40;0.40;;;;;;;10.88;72.06;100742.47;5141420;27;20028;-73
2022/10/17 00:16:09;;;;;;;0.40;0.40;;;;;;;10.86;70.82;100754.59;5126048;28;20087;-74
2022/10/17 00:18:34;;;;;;;0.50;0.50;;;;;;;10.83;70.35;100743.38;5125998;28;20031;-73
2022/10/17 00:21:00;;;;;;;1.00;1.00;;;;;;;10.79;70.44;100752.91;5141768;28;20020;-73
2022/10/17 00:23:27;;;;;;;0.40;0.40;;;;;;;10.78;70.42;100766.78;5125873;28;20054;-71
2022/10/17 00:26:04;;;;;;;0.40;0.40;;;;;;;10.75;70.72;100761.59;5125931;28;20042;-72
2022/10/17 00:28:30;;;;;;;0.40;0.40;;;;;;;10.72;70.70;100765.06;5125905;28;20230;-73
2022/10/17 00:31:00;;;;;;;0.50;0.50;;;;;;;10.69;70.65;100753.84;5125911;28;20047;-73
2022/10/17 00:33:27;;;;;;;0.40;0.40;;;;;;;10.73;70.45;100752.94;5107701;28;20176;-73
2022/10/17 00:36:02;;;;;;;0.40;0.40;;;;;;;10.73;70.17;100773.72;5125917;28;20023;-73
2022/10/17 00:38:28;;;;;;;0.43;0.43;;;;;;;10.75;70.48;100779.78;5125865;28;20087;-72
2022/10/17 00:40:53;;;;;;;0.40;0.40;;;;;;;10.77;70.71;100791.00;5125761;28;20051;-72
2022/10/17 00:43:19;;;;;;;0.40;0.40;;;;;;;10.79;70.91;100789.28;5128579;28;20522;-72
2022/10/17 00:45:44;;;;;;;0.40;0.40;;;;;;;10.81;71.00;100795.34;5129867;28;20026;-73
2022/10/17 00:48:10;;;;;;;0.50;0.50;;;;;;;10.86;70.99;100788.38;5129748;28;20024;-73
2022/10/17 00:50:38;;;;;;;0.40;0.40;;;;;;;10.83;70.97;100783.19;5129776;28;20019;-72
2022/10/17 00:53:05;;;;;;;0.40;0.40;;;;;;;10.85;71.75;100788.38;5129711;28;20473;-74
2022/10/17 00:55:36;;;;;;;0.82;0.82;;;;;;;10.88;71.95;100794.44;5129520;28;20023;-73
2022/10/17 00:58:03;;;;;;;0.40;0.40;;;;;;;10.87;72.52;100791.84;5110525;28;20027;-72
2022/10/17 01:00:29;;;;;;;0.40;0.40;;;;;;;10.88;72.97;100802.22;5128259;28;20054;-72
2022/10/17 01:02:54;;;;;;;0.40;0.40;;;;;;;10.90;73.20;100807.41;5129069;28;20016;-72
2022/10/17 01:05:21;;;;;;;0.40;0.40;;;;;;;10.93;73.72;100802.22;5129451;28;20106;-72
2022/10/17 01:07:48;;;;;;;0.40;0.40;;;;;;;10.95;74.01;100804.81;5110949;28;20019;-72
2022/10/17 01:10:14;;;;;;;0.40;0.40;;;;;;;10.95;74.29;100799.59;5145167;27;20027;-74
2022/10/17 01:13:05;;;;;;;0.40;0.40;;;;;;;10.93;74.23;100809.16;5145222;27;20079;-73
2022/10/17 01:15:56;;;;;;;0.50;0.50;;;;;;;10.95;74.16;100804.81;5102343;28;20028;-71
2022/10/17 01:18:30;;;;;;;0.40;0.40;;;;;;;10.86;73.95;100801.34;5129138;28;20151;-74
2022/10/17 01:21:06;;;;;;;0.40;0.40;;;;;;;10.80;73.95;100811.75;5110735;28;20028;-71
2022/10/17 01:23:53;;;;;;;0.40;0.40;;;;;;;10.76;73.79;100810.94;5128911;28;20028;-72
2022/10/17 01:26:37;;;;;;;0.40;0.40;;;;;;;10.66;73.70;100804.91;5129166;28;20572;-72
2022/10/17 01:29:20;;;;;;;0.40;0.40;;;;;;;10.64;73.50;100814.41;5128829;28;20533;-73
2022/10/17 01:32:00;;;;;;;0.40;0.40;;;;;;;10.56;73.60;100807.50;5128929;28;20028;-74
2022/10/17 01:34:31;;;;;;;0.40;0.40;;;;;;;10.57;73.67;100815.31;5144773;27;20020;-73
2022/10/17 01:37:05;;;;;;;1.40;1.30;;;;;;;10.53;73.75;100823.94;5129057;28;20027;-74
2022/10/17 01:39:40;;;;;;;0.40;0.40;;;;;;;10.46;73.90;100811.81;5110624;28;20032;-74
2022/10/17 01:42:34;;;;;;;0.40;0.40;;;;;;;10.43;73.91;100815.28;5128398;28;20035;-72
2022/10/17 01:45:08;;;;;;;0.50;0.50;;;;;;;10.36;73.87;100813.56;5128549;28;20047;-72
2022/10/17 01:47:34;;;;;;;0.40;0.40;;;;;;;10.25;74.35;100800.59;5128766;28;20031;-72
2022/10/17 01:50:12;;;;;;;0.40;0.40;;;;;;;10.21;74.56;100811.84;5128580;28;20030;-73
2022/10/17 01:52:43;;;;;;;0.40;0.40;;;;;;;10.20;74.87;100810.97;5128211;28;20023;-73
2022/10/17 01:55:15;;;;;;;0.60;0.60;;;;;;;10.21;74.81;100817.03;5127734;28;20049;-73
2022/10/17 01:57:46;;;;;;;0.40;0.40;;;;;;;10.10;74.74;100812.72;5128410;28;20479;-73
2022/10/17 02:00:22;;;;;;;0.50;0.50;;;;;;;10.12;74.91;100821.34;5128452;28;20050;-73
2022/10/17 02:02:51;;;;;;;0.40;0.40;;;;;;;10.12;75.04;100816.16;5128308;28;20023;-75
2022/10/17 02:05:20;;;;;;;0.47;0.47;;;;;;;10.11;75.17;100827.41;5128656;28;20024;-73
2022/10/17 02:07:45;;;;;;;0.40;0.40;;;;;;;10.12;75.08;100829.16;5128114;28;20085;-73
2022/10/17 02:10:40;;;;;;;0.40;0.40;;;;;;;10.10;75.27;100830.88;5128432;28;20019;-73
2022/10/17 02:13:18;;;;;;;0.40;0.40;;;;;;;10.17;75.12;100842.97;5117066;28;20034;-73
2022/10/17 02:16:22;;;;;;;0.40;0.40;;;;;;;10.20;74.96;100844.72;5128363;28;20027;-73
2022/10/17 02:19:13;;;;;;;0.80;0.80;;;;;;;10.23;74.98;100855.09;5128221;28;20024;-74
2022/10/17 02:21:59;;;;;;;0.40;0.40;;;;;;;10.26;75.04;100847.31;5114877;28;20047;-72
2022/10/17 02:24:46;;;;;;;0.47;0.47;;;;;;;10.30;75.05;100858.56;5129049;28;20032;-74
2022/10/17 02:27:42;;;;;;;0.50;0.50;;;;;;;10.29;74.95;100854.22;5128151;28;20080;-73
2022/10/17 02:30:16;;;;;;;0.45;0.45;;;;;;;10.33;74.64;100857.69;5128074;28;20114;-73
2022/10/17 02:33:17;;;;;;;0.40;0.40;;;;;;;10.36;74.36;100868.06;5109731;28;20020;-74
2022/10/17 02:35:48;;;;;;;0.50;0.50;;;;;;;10.34;74.45;100862.88;5084710;28;20031;-73
2022/10/17 02:38:15;;;;;;;0.40;0.40;;;;;;;10.27;74.50;100846.44;5127674;28;20028;-73
2022/10/17 02:40:41;;;;;;;0.68;0.68;;;;;;;10.26;74.54;100851.63;5127563;28;20075;-73
2022/10/17 02:43:07;;;;;;;0.40;0.40;;;;;;;10.27;74.38;100862.00;5143408;27;20084;-73
2022/10/17 02:45:35;;;;;;;0.40;0.40;;;;;;;10.24;74.57;100863.75;5127452;28;20020;-73
2022/10/17 02:48:17;;;;;;;0.40;0.40;;;;;;;10.19;74.66;100868.06;5127869;28;20024;-73
2022/10/17 02:50:49;;;;;;;1.08;1.08;;;;;;;10.17;74.80;100863.72;5127590;28;20027;-73
2022/10/17 02:53:18;;;;;;;0.40;0.40;;;;;;;10.11;74.90;100852.50;5127455;28;20466;-73
2022/10/17 02:55:52;;;;;;;0.50;0.50;;;;;;;10.14;74.93;100863.72;5127442;28;20089;-73
2022/10/17 02:58:27;;;;;;;0.50;0.50;;;;;;;10.11;74.82;100874.09;5127408;28;20024;-73
2022/10/17 03:00:52;;;;;;;0.40;0.40;;;;;;;10.09;74.77;100870.66;5127407;28;20075;-73
2022/10/17 03:03:23;;;;;;;0.40;0.40;;;;;;;10.11;74.71;100881.03;5127129;28;20055;-74
2022/10/17 03:05:48;;;;;;;0.40;0.40;;;;;;;10.09;74.75;100869.78;5126753;28;20028;-73
2022/10/17 03:08:14;;;;;;;0.40;0.40;;;;;;;10.12;74.74;100875.84;5108852;28;20016;-73
2022/10/17 03:10:39;;;;;;;2.45;2.35;;;;;;;10.12;75.25;100881.03;5127145;28;20054;-73
2022/10/17 03:13:05;;;;;;;0.40;0.40;;;;;;;10.14;75.46;100878.44;5126854;28;20031;-72
2022/10/17 03:15:30;;;;;;;0.43;0.43;;;;;;;10.15;75.28;100886.22;5126898;28;20023;-74
2022/10/17 03:17:55;;;;;;;0.40;0.40;;;;;;;10.11;75.61;100894.84;5126806;28;20023;-75
2022/10/17 03:20:21;;;;;;;5.05;3.20;;;;;;;10.14;75.79;100900.03;5126863;28;20016;-73
2022/10/17 03:22:46;;;;;;;0.50;0.50;;;;;;;10.11;75.96;100905.22;5126493;28;20038;-73
2022/10/17 03:25:11;;;;;;;0.45;0.45;;;;;;;10.10;75.94;100903.50;5126932;28;20412;-73
2022/10/17 03:27:37;;;;;;;0.40;0.40;;;;;;;10.12;76.20;100908.69;5125751;28;20047;-73
2022/10/17 03:30:02;;;;;;;0.50;0.50;;;;;;;10.10;75.98;100920.78;5125351;28;20020;-72
2022/10/17 03:32:28;;;;;;;0.50;0.50;;;;;;;10.03;76.37;100917.34;5126432;28;20459;-72
2022/10/17 03:34:53;;;;;;;0.50;0.50;;;;;;;9.96;76.63;100911.28;5126708;28;20039;-73
2022/10/17 03:37:18;;;;;;;0.50;0.50;;;;;;;9.98;76.51;100911.28;5108504;28;20036;-74
2022/10/17 03:39:43;;;;;;;1.10;1.10;;;;;;;9.92;76.85;100909.50;5126600;28;20031;-73
2022/10/17 03:42:09;;;;;;;0.40;0.40;;;;;;;9.88;77.20;100913.84;5107805;28;20412;-73
2022/10/17 03:44:34;;;;;;;2.92;2.80;;;;;;;9.81;76.99;100904.31;5126260;28;20419;-74
2022/10/17 03:47:00;;;;;;;0.57;0.57;;;;;;;9.83;77.42;100905.19;5126432;28;20027;-74
2022/10/17 03:49:25;;;;;;;0.40;0.40;;;;;;;9.77;76.94;100890.47;5126207;28;20028;-73
2022/10/17 03:51:50;;;;;;;0.40;0.40;;;;;;;9.83;76.83;100905.19;5126032;28;20041;-73
2022/10/17 03:54:15;;;;;;;0.40;0.40;;;;;;;9.83;76.53;100905.19;5126344;28;20107;-73
2022/10/17 03:56:42;;;;;;;0.40;0.40;;;;;;;9.78;76.38;100905.16;5126177;28;20482;-74
2022/10/17 03:59:11;;;;;;;0.40;0.40;;;;;;;9.73;76.29;100899.09;5126032;28;20069;-75
2022/10/17 04:01:37;;;;;;;0.50;0.50;;;;;;;9.80;76.14;100912.94;5125202;28;20027;-72
2022/10/17 04:04:02;;;;;;;0.50;0.50;;;;;;;9.78;76.30;100918.13;5125162;28;20111;-71
2022/10/17 04:06:27;;;;;;;0.40;0.40;;;;;;;9.79;76.29;100919.00;5107990;28;20026;-76
2022/10/17 04:08:53;;;;;;;0.40;0.40;;;;;;;9.77;76.36;100926.78;5125983;28;20477;-72
2022/10/17 04:11:20;;;;;;;0.40;0.40;;;;;;;9.78;76.66;100941.47;5126020;28;20028;-72
2022/10/17 04:13:46;;;;;;;0.40;0.40;;;;;;;9.79;76.55;100939.75;5126053;28;20026;-75
2022/10/17 04:16:16;;;;;;;0.40;0.40;;;;;;;9.79;76.83;100942.34;5125621;28;20064;-75
2022/10/17 04:18:42;;;;;;;0.50;0.50;;;;;;;9.74;76.74;100933.69;5125952;28;20053;-75
2022/10/17 04:21:09;;;;;;;0.40;0.40;;;;;;;9.74;76.91;100936.28;5126022;28;20024;-74
2022/10/17 04:23:34;;;;;;;0.50;0.50;;;;;;;9.63;77.35;100933.66;5125871;28;20050;-74
2022/10/17 04:26:02;;;;;;;0.40;0.40;;;;;;;9.66;77.56;100938.84;5125840;28;20086;-75
2022/10/17 04:28:27;;;;;;;0.40;0.40;;;;;;;9.63;78.02;100934.47;5125795;28;20022;-72
2022/10/17 04:31:00;;;;;;;1.25;1.25;;;;;;;9.61;78.28;100941.41;5125939;28;20024;-77
2022/10/17 04:33:25;;;;;;;0.40;0.40;;;;;;;9.55;78.48;100926.69;5125483;28;20016;-76
2022/10/17 04:35:58;;;;;;;0.47;0.47;;;;;;;9.59;78.46;100937.94;5107502;28;20034;-76
2022/10/17 04:38:25;;;;;;;0.50;0.50;;;;;;;9.44;78.65;100918.00;5126284;28;20023;-77
2022/10/17 04:40:50;;;;;;;0.40;0.40;;;;;;;9.53;78.86;100927.53;5128477;28;20016;-73
2022/10/17 04:43:15;;;;;;;3.20;1.75;;;;;;;9.60;78.68;100950.03;5125489;28;20036;-70
2022/10/17 04:45:41;;;;;;;0.50;0.50;;;;;;;9.63;78.97;100951.78;5125381;28;20095;-72
2022/10/17 04:48:06;;;;;;;2.30;2.15;;;;;;;9.63;78.72;100950.03;5107226;28;20479;-75
2022/10/17 04:50:32;;;;;;;0.50;0.50;;;;;;;9.70;78.74;100963.03;5127869;28;20035;-78
2022/10/17 04:52:58;;;;;;;0.50;0.50;;;;;;;9.75;78.80;100963.91;5129597;28;20018;-79
2022/10/17 04:55:23;;;;;;;0.47;0.47;;;;;;;9.79;79.10;100955.31;5125769;28;20019;-74
2022/10/17 04:57:48;;;;;;;0.50;0.50;;;;;;;9.81;79.45;100963.94;5125717;28;20053;-74
2022/10/17 05:00:14;;;;;;;0.50;0.50;;;;;;;9.87;79.76;100960.53;5125553;28;20065;-73
2022/10/17 05:02:39;;;;;;;1.95;1.85;;;;;;;9.87;80.30;100963.97;5125308;28;20059;-75
2022/10/17 05:05:05;;;;;;;0.50;0.50;;;;;;;9.87;80.61;100976.09;5125652;28;20035;-73
2022/10/17 05:07:30;;;;;;;3.00;2.25;;;;;;;9.81;81.08;100963.94;5125535;28;20057;-74
2022/10/17 05:09:57;;;;;;;0.40;0.40;;;;;;;9.82;81.00;100976.06;5125603;28;20039;-74
2022/10/17 05:12:23;;;;;;;0.60;0.60;;;;;;;9.80;81.44;100967.41;5125479;28;20024;-74
2022/10/17 05:14:48;;;;;;;0.40;0.40;;;;;;;9.81;81.56;100973.47;5125229;28;20173;-75
2022/10/17 05:17:13;;;;;;;0.40;0.40;;;;;;;9.76;81.34;100961.34;5125206;28;20027;-75
2022/10/17 05:19:39;;;;;;;0.40;0.40;;;;;;;9.72;81.25;100954.41;5125407;28;20027;-75
2022/10/17 05:22:04;;;;;;;0.40;0.40;;;;;;;9.77;81.43;100968.28;5106433;28;20099;-74
2022/10/17 05:24:29;;;;;;;0.40;0.40;;;;;;;9.76;81.73;100978.63;5125307;28;20139;-74
2022/10/17 05:26:55;;;;;;;0.75;0.75;;;;;;;9.67;81.87;100961.31;5125361;28;20026;-76
2022/10/17 05:29:21;;;;;;;0.45;0.45;;;;;;;9.73;82.06;100966.50;5128065;28;20107;-75
2022/10/17 05:31:46;;;;;;;0.40;0.40;;;;;;;9.73;82.01;100974.28;5129069;28;20051;-75
2022/10/17 05:34:11;;;;;;;0.45;0.45;;;;;;;9.73;82.10;100970.84;5128965;28;20020;-75
2022/10/17 05:36:37;;;;;;;0.50;0.50;;;;;;;9.73;82.09;100965.66;5129172;28;20024;-78
2022/10/17 05:39:02;;;;;;;0.57;0.57;;;;;;;9.65;81.97;100958.69;5128732;28;20076;-76
2022/10/17 05:41:28;;;;;;;0.40;0.40;;;;;;;9.74;82.23;100965.66;5128389;28;20024;-76
2022/10/17 05:43:53;;;;;;;0.50;0.50;;;;;;;9.70;81.90;100957.84;5128300;28;20080;-75
2022/10/17 05:46:18;;;;;;;0.50;0.50;;;;;;;9.71;82.30;100967.38;5128493;28;20034;-75
2022/10/17 05:48:44;;;;;;;2.65;1.58;;;;;;;9.72;82.20;100974.28;5128158;28;20396;-76
2022/10/17 05:51:10;;;;;;;0.50;0.50;;;;;;;9.69;82.21;100971.69;5127548;28;20027;-76
2022/10/17 05:53:38;;;;;;;0.40;0.40;;;;;;;9.70;82.22;100981.19;5127750;28;20082;-75
2022/10/17 05:56:06;;;;;;;0.40;0.40;;;;;;;9.70;82.42;100986.38;5128120;28;20030;-75
2022/10/17 05:58:33;;;;;;;0.50;0.50;;;;;;;9.73;82.72;100992.44;5109043;28;20118;-74
2022/10/17 06:01:04;;;;;;;0.45;0.45;;;;;;;9.74;82.61;100981.22;5108987;28;20044;-75
2022/10/17 06:03:30;;;;;;;0.65;0.65;;;;;;;9.81;82.20;100983.84;5127421;28;20023;-74
2022/10/17 06:06:02;;;;;;;0.40;0.40;;;;;;;9.85;81.63;100989.03;5127365;28;20083;-74
2022/10/17 06:08:27;;;;;;;0.98;0.98;;;;;;;9.83;81.47;100979.50;5127571;28;20019;-75
2022/10/17 06:10:53;;;;;;;0.40;0.40;;;;;;;9.82;81.27;100982.97;5127389;28;20031;-75
2022/10/17 06:13:18;;;;;;;2.00;1.90;;;;;;;9.86;81.27;100992.47;5127172;28;20141;-73
2022/10/17 06:15:44;;;;;;;0.40;0.40;;;;;;;9.85;81.29;100991.63;5126989;28;20024;-75
2022/10/17 06:18:10;;;;;;;0.40;0.40;;;;;;;9.87;81.19;100999.44;5142966;27;20031;-75
2022/10/17 06:20:36;;;;;;;1.85;1.75;;;;;;;9.84;81.33;101000.25;5127195;28;20028;-76
2022/10/17 06:23:01;;;;;;;0.40;0.40;;;;;;;9.85;81.37;100991.63;5127156;28;20042;-75
2022/10/17 06:25:28;;;;;;;0.40;0.40;;;;;;;9.83;81.11;100995.94;5127243;28;20057;-75
2022/10/17 06:27:53;;;;;;;0.50;0.50;;;;;;;9.82;81.04;100993.34;5109070;28;20035;-76
2022/10/17 06:30:18;;;;;;;0.40;0.40;;;;;;;9.88;81.27;101015.00;5126834;28;20028;-76
2022/10/17 06:32:44;;;;;;;0.40;0.40;;;;;;;9.80;81.18;101014.09;5126945;28;20041;-76
2022/10/17 06:35:09;;;;;;;0.40;0.40;;;;;;;9.88;81.25;101020.19;5126948;28;20027;-75
2022/10/17 06:37:36;;;;;;;0.40;0.40;;;;;;;9.89;81.41;101018.44;5127033;28;20109;-75
2022/10/17 06:40:01;;;;;;;0.45;0.45;;;;;;;9.98;81.36;101033.19;5126156;28;20016;-75
2022/10/17 06:42:30;;;;;;;0.43;0.43;;;;;;;9.99;81.60;101016.75;5142382;27;20057;-76
2022/10/17 06:44:55;;;;;;;0.40;0.40;;;;;;;10.05;81.60;101024.56;5126633;28;20047;-74
2022/10/17 06:47:20;;;;;;;0.50;0.50;;;;;;;10.09;81.73;101031.50;5126767;28;20041;-75
2022/10/17 06:49:46;;;;;;;0.40;0.40;;;;;;;10.11;81.58;101019.38;5127015;28;20049;-74
2022/10/17 06:52:11;;;;;;;0.40;0.40;;;;;;;10.16;81.59;101022.88;5126643;28;20478;-74
2022/10/17 06:54:36;;;;;;;0.40;0.40;;;;;;;10.21;81.65;101029.81;5127124;28;20047;-74
2022/10/17 06:57:02;;;;;;;0.40;0.40;;;;;;;10.16;81.61;101029.78;5126634;28;20023;-76
2022/10/17 06:59:27;;;;;;;0.40;0.40;;;;;;;10.17;81.84;101034.97;5107733;28;20020;-74
2022/10/17 07:01:52;;;;;;;0.40;0.40;;;;;;;10.19;81.90;101028.94;5126465;28;20019;-74
2022/10/17 07:04:23;;;;;;;0.40;0.40;;;;;;;10.24;81.73;101019.44;5107988;28;20543;-76
2022/10/17 07:06:48;;;;;;;0.40;0.40;;;;;;;10.25;81.84;101026.34;5126775;28;20039;-74
2022/10/17 07:09:14;;;;;;;0.43;0.43;;;;;;;10.35;81.52;101038.47;5126522;28;20047;-76
2022/10/17 07:11:39;;;;;;;0.43;0.43;;;;;;;10.29;81.23;101039.34;5126291;28;20020;-75
2022/10/17 07:14:04;;;;;;;0.93;0.93;;;;;;;10.26;81.37;101043.66;5125981;28;20034;-74
2022/10/17 07:16:30;;;;;;;0.40;0.40;;;;;;;10.33;81.29;101044.53;5107764;28;20016;-74
2022/10/17 07:18:55;;;;;;;0.40;0.40;;;;;;;10.33;81.44;101049.72;5126374;28;20019;-74
2022/10/17 07:21:21;;;;;;;1.45;1.45;;;;;;;10.31;81.36;101047.13;5126225;28;20506;-74
2022/10/17 07:23:46;;;;;;;2.03;1.92;;;;;;;10.31;81.55;101052.31;5125824;28;20019;-74
2022/10/17 07:26:14;;;;;;;0.50;0.50;;;;;;;10.35;81.81;101064.44;5125651;28;20028;-75
2022/10/17 07:28:42;;;;;;;1.05;1.05;;;;;;;10.40;81.57;101065.31;5106700;28;20051;-75
2022/10/17 07:31:11;;;;;;;0.50;0.50;;;;;;;10.41;81.91;101058.41;5125897;28;20026;-74
2022/10/17 07:33:36;;;;;;;0.40;0.40;;;;;;;10.50;81.91;101062.78;5125776;28;20028;-75
2022/10/17 07:36:03;;;;;;;0.50;0.50;;;;;;;10.58;81.62;101070.59;5125825;28;20020;-74
2022/10/17 07:38:29;;;;;;;0.50;0.50;;;;;;;10.53;81.92;101068.84;5141578;27;20011;-73
2022/10/17 07:40:57;;;;;;;0.40;0.40;;;;;;;10.66;81.55;101080.16;5107490;28;20023;-74
2022/10/17 07:43:23;;;;;;;0.47;0.47;;;;;;;10.74;81.78;101079.28;5125556;28;20106;-74
2022/10/17 07:45:48;;;;;;;0.40;0.40;;;;;;;10.78;81.47;101074.09;5125648;28;20049;-74
2022/10/17 07:48:14;;;;;;;1.90;1.80;;;;;;;10.83;81.61;101071.50;5125724;28;20106;-74
2022/10/17 07:50:39;;;;;;;0.47;0.47;;;;;;;10.79;81.30;101059.38;5125467;28;20528;-74
2022/10/17 07:53:04;;;;;;;0.40;0.40;;;;;;;10.83;81.22;101081.88;5107474;28;20016;-73
2022/10/17 07:55:30;;;;;;;4.15;3.80;;;;;;;10.86;81.29;101087.09;5107288;28;20045;-73
2022/10/17 07:57:56;;;;;;;0.50;0.50;;;;;;;10.89;80.98;101081.88;5125717;28;20030;-73
2022/10/17 08:00:21;;;;;;;0.40;0.40;;;;;;;10.97;80.95;101089.72;5125206;28;20023;-74
2022/10/17 08:02:47;;;;;;;0.40;0.40;;;;;;;10.96;80.80;101076.72;5125376;28;20023;-73
2022/10/17 08:05:12;;;;;;;0.40;0.40;;;;;;;10.95;80.92;101064.59;5125426;28;20027;-73
2022/10/17 08:07:39;;;;;;;0.40;0.40;;;;;;;11.01;81.06;101064.59;5125227;28;20483;-73
2022/10/17 08:10:04;;;;;;;0.45;0.45;;;;;;;10.99;80.88;101058.53;5107036;28;20104;-73
2022/10/17 08:12:33;;;;;;;3.53;3.22;;;;;;;10.99;80.92;101066.34;5125327;28;20493;-74
2022/10/17 08:15:00;;;;;;;0.40;0.40;;;;;;;10.98;80.88;101054.19;5125103;28;20027;-73
2022/10/17 08:17:26;;;;;;;1.10;1.02;;;;;;;11.04;81.08;101067.19;5141147;27;20020;-74
2022/10/17 08:19:51;;;;;;;0.40;0.40;;;;;;;11.07;81.29;101068.94;5125429;28;20053;-73
2022/10/17 08:22:17;;;;;;;1.13;1.13;;;;;;;11.08;80.91;101068.94;5125157;28;20114;-73
2022/10/17 08:24:43;;;;;;;5.05;3.60;;;;;;;11.13;81.04;101068.94;5125127;28;20028;-73
2022/10/17 08:27:10;;;;;;;0.40;0.40;;;;;;;11.22;80.78;101057.66;5106782;28;20024;-73
2022/10/17 08:29:36;;;;;;;0.40;0.40;;;;;;;11.22;80.75;101055.06;5106906;28;20023;-73
2022/10/17 08:32:02;;;;;;;0.40;0.40;;;;;;;11.27;80.46;101056.81;5125164;28;20094;-74
2022/10/17 08:34:27;;;;;;;0.40;0.40;;;;;;;11.31;80.54;101062.00;5125017;28;20023;-73
2022/10/17 08:36:53;;;;;;;0.40;0.40;;;;;;;11.27;80.68;101056.81;5106769;28;20100;-72
2022/10/17 08:39:18;;;;;;;0.40;0.40;;;;;;;11.46;80.54;101058.50;5125012;28;20020;-73
2022/10/17 08:42:09;;;;;;;0.40;0.40;;;;;;;11.53;80.49;101052.44;5124853;28;20131;-73
2022/10/17 08:44:59;;;;;;;0.95;0.95;;;;;;;11.57;80.17;101058.47;5124735;28;20400;-74
2022/10/17 08:47:35;;;;;;;0.40;0.40;;;;;;;11.56;79.90;101052.44;5125004;28;20503;-73
2022/10/17 08:50:04;;;;;;;0.40;0.40;;;;;;;11.56;80.18;101047.22;5123529;28;20028;-75
2022/10/17 08:52:47;;;;;;;0.40;0.40;;;;;;;11.63;80.00;101058.47;5139188;28;20036;-73
2022/10/17 08:55:26;;;;;;;0.40;0.40;;;;;;;11.64;79.97;101061.09;5124602;28;20460;-74
2022/10/17 08:57:51;;;;;;;0.40;0.40;;;;;;;11.64;79.78;101055.00;5124618;28;20059;-72
2022/10/17 09:00:19;;;;;;;0.40;0.40;;;;;;;11.62;79.95;101060.22;5123927;28;20069;-72
2022/10/17 09:02:56;;;;;;;0.40;0.40;;;;;;;11.65;79.54;101064.53;5124772;28;20032;-73
2022/10/17 09:05:48;;;;;;;0.40;0.40;;;;;;;11.61;79.54;101065.41;5128566;28;20053;-73
2022/10/17 09:08:52;;;;;;;0.50;0.50;;;;;;;11.63;79.87;101068.84;5128458;28;20020;-73
2022/10/17 09:11:47;;;;;;;0.40;0.40;;;;;;;11.70;79.24;101067.13;5128437;28;20083;-72
2022/10/17 09:14:18;;;;;;;0.40;0.40;;;;;;;11.71;79.42;101061.06;5133313;28;20035;-73
2022/10/17 09:16:56;;;;;;;0.40;0.40;;;;;;;11.73;78.76;101052.38;5128204;28;20024;-73
2022/10/17 09:19:27;;;;;;;0.73;0.73;;;;;;;11.77;78.23;101051.47;5143970;27;20019;-73
2022/10/17 09:22:08;;;;;;;0.60;0.60;;;;;;;11.63;78.58;101042.84;5128341;28;20023;-75
2022/10/17 09:24:38;;;;;;;0.40;0.40;;;;;;;11.73;78.75;101043.69;5128784;28;20327;-73
2022/10/17 09:27:05;;;;;;;0.65;0.65;;;;;;;11.68;78.57;101040.25;5128267;28;20143;-75
2022/10/17 09:29:30;;;;;;;0.40;0.40;;;;;;;11.67;78.65;101042.00;5127820;28;20023;-73
2022/10/17 09:32:23;;;;;;;0.40;0.40;;;;;;;11.71;78.76;101038.50;5127934;28;20049;-73
2022/10/17 09:34:48;;;;;;;0.40;0.40;;;;;;;11.67;78.58;101028.09;5124344;28;20519;-74
2022/10/17 09:37:16;;;;;;;0.40;0.40;;;;;;;11.65;78.37;101026.38;5127986;28;20548;-73
2022/10/17 09:39:42;;;;;;;0.40;0.40;;;;;;;11.69;78.77;101036.78;5128025;28;20020;-73
2022/10/17 09:42:20;;;;;;;0.40;0.40;;;;;;;11.63;79.31;101030.72;5127648;28;20044;-73
2022/10/17 09:45:12;;;;;;;0.40;0.40;;;;;;;11.74;78.35;101020.28;5127570;28;20032;-75
2022/10/17 09:47:42;;;;;;;0.40;0.40;;;;;;;11.68;78.58;101024.66;5127561;28;20036;-73
2022/10/17 09:50:30;;;;;;;0.40;0.40;;;;;;;11.71;78.87;101019.44;5125269;28;20047;-73
2022/10/17 09:53:26;;;;;;;0.40;0.40;;;;;;;11.73;79.05;101018.56;5127517;28;20069;-75
2022/10/17 09:55:56;;;;;;;0.40;0.40;;;;;;;11.68;78.83;100994.28;5127600;28;20045;-72
2022/10/17 09:58:21;;;;;;;0.47;0.47;;;;;;;11.82;78.76;100993.38;5127529;28;20031;-73
2022/10/17 10:00:47;;;;;;;0.75;0.75;;;;;;;11.85;78.10;100996.81;5127155;28;20545;-74
2022/10/17 10:03:24;;;;;;;0.40;0.40;;;;;;;11.74;78.62;100996.88;5142639;27;20106;-73
2022/10/17 10:06:13;;;;;;;2.15;2.05;;;;;;;11.83;78.02;100982.09;5109082;28;20030;-75
2022/10/17 10:09:02;;;;;;;0.40;0.40;;;;;;;11.80;78.70;100983.00;5127381;28;20028;-74
2022/10/17 10:11:47;;;;;;;1.30;1.20;;;;;;;11.68;78.93;100975.25;5108986;28;20043;-75
2022/10/17 10:14:38;;;;;;;2.60;1.58;;;;;;;11.67;79.10;100976.97;5141956;27;20747;-76
2022/10/17 10:17:24;;;;;;;1.55;1.33;;;;;;;11.71;79.08;100977.84;5108874;28;20027;-78
2022/10/17 10:19:50;;;;;;;0.40;0.40;;;;;;;11.58;79.60;100970.03;5129341;28;20047;-79
2022/10/17 10:22:18;;;;;;;3.60;3.33;;;;;;;11.59;79.66;100970.94;5127227;28;20028;-79
2022/10/17 10:24:43;;;;;;;0.40;0.40;;;;;;;11.51;80.74;100974.44;5126860;28;20030;-82
2022/10/17 10:27:15;;;;;;;0.40;0.40;;;;;;;11.46;80.79;100972.69;5129187;28;20031;-82
2022/10/17 10:29:47;;;;;;;5.72;3.55;;;;;;;11.48;81.36;100973.56;5129067;28;20043;-78
2022/10/17 10:32:23;;;;;;;0.50;0.50;;;;;;;11.57;81.15;100965.72;5144292;27;20016;-79
2022/10/17 10:34:55;;;;;;;0.40;0.40;;;;;;;11.59;81.12;100958.78;5142692;27;20164;-78
2022/10/17 10:37:38;;;;;;;13.43;2.45;;;;;;;11.63;80.66;100947.50;5127094;28;20075;-76
2022/10/17 10:40:26;;;;;;;0.40;0.40;;;;;;;11.67;80.75;100961.38;5126885;28;20027;-76
2022/10/17 10:42:57;;;;;;;0.40;0.40;;;;;;;11.66;80.48;100946.63;5125983;28;20128;-75
2022/10/17 10:45:28;;;;;;;0.50;0.50;;;;;;;11.86;79.68;100948.25;5108312;28;20020;-75
2022/10/17 10:47:56;;;;;;;0.40;0.40;;;;;;;11.94;79.04;100954.31;5126685;28;20031;-76
2022/10/17 10:50:35;;;;;;;0.40;0.40;;;;;;;11.68;79.77;100954.44;5126695;28;20031;-75
2022/10/17 10:53:22;;;;;;;0.50;0.50;;;;;;;11.64;80.33;100943.16;5126592;28;20020;-74
2022/10/17 10:56:12;;;;;;;0.40;0.40;;;;;;;11.65;80.30;100948.38;5126582;28;20028;-74
2022/10/17 10:59:12;;;;;;;0.40;0.40;;;;;;;11.75;80.43;100956.13;5126472;28;20027;-74
2022/10/17 11:01:52;;;;;;;0.40;0.40;;;;;;;11.85;79.79;100955.19;5126342;28;20026;-73
2022/10/17 11:04:27;;;;;;;2.05;1.95;;;;;;;11.95;79.06;100956.03;5126121;28;20096;-73
2022/10/17 11:07:05;;;;;;;0.63;0.63;;;;;;;11.88;79.46;100937.00;5126195;28;20027;-74
2022/10/17 11:09:49;;;;;;;0.40;0.40;;;;;;;12.03;78.96;100943.84;5142196;27;20034;-74
2022/10/17 11:12:20;;;;;;;0.30;0.30;;;;;;;12.00;78.61;100933.44;5126137;28;20047;-73
2022/10/17 11:15:05;;;;;;;0.50;0.50;;;;;;;12.00;77.90;100922.16;5125916;28;20028;-74
2022/10/17 11:17:41;;;;;;;0.40;0.40;;;;;;;11.94;77.73;100915.28;5142155;27;20331;-75
2022/10/17 11:20:14;;;;;;;0.57;0.57;;;;;;;11.95;77.60;100918.75;5126250;28;20106;-74
2022/10/17 11:22:48;;;;;;;0.40;0.40;;;;;;;11.82;77.96;100899.75;5126000;28;20028;-74
2022/10/17 11:25:36;;;;;;;0.50;0.50;;;;;;;11.87;77.68;100901.44;5125837;28;20109;-74
2022/10/17 11:28:23;;;;;;;0.88;0.88;;;;;;;11.95;77.83;100903.13;5106573;28;20024;-74
2022/10/17 11:31:01;;;;;;;0.85;0.85;;;;;;;11.93;77.67;100890.13;5140892;27;20042;-74
2022/10/17 11:33:44;;;;;;;0.50;0.50;;;;;;;11.82;78.08;100886.72;5141584;27;20230;-73
2022/10/17 11:36:11;;;;;;;0.40;0.40;;;;;;;11.93;77.19;100879.72;5125751;28;20084;-75
2022/10/17 11:38:58;;;;;;;0.40;0.40;;;;;;;11.79;77.39;100871.97;5141517;27;20027;-74
2022/10/17 11:41:50;;;;;;;0.40;0.40;;;;;;;11.64;77.77;100862.56;5125316;28;20053;-74
2022/10/17 11:44:30;;;;;;;0.50;0.50;;;;;;;11.53;78.20;100844.41;5116058;28;20089;-74